Time;durP1;ratioP1;P1;durP2;ratioP2;P2;SDS_P1;SDS_P2;PMS_P1;PMS_P2;Temp;Humidity;BMP_temperature;BMP_pressure;BME280_temperature;BME280_humidity;BME280_pressure;Samples;Min_cycle;Max_cycle;Signal;HPM_P1;HPM_P2
2022/01/26 00:06:31;;;;;;;98.45;29.58;;;1.20;99.90;;;;;;5096342;28;20051;-69
2022/01/26 00:08:57;;;;;;;99.05;29.15;;;1.20;99.90;;;;;;5077727;28;20059;-69
2022/01/26 00:11:24;;;;;;;106.57;28.52;;;1.30;99.90;;;;;;5094551;28;20024;-68
2022/01/26 00:13:50;;;;;;;100.53;28.52;;;1.30;99.90;;;;;;5095175;28;20087;-68
2022/01/26 00:16:26;;;;;;;94.05;28.85;;;1.40;99.90;;;;;;5096840;28;20370;-68
2022/01/26 00:18:55;;;;;;;92.95;27.92;;;1.50;99.90;;;;;;5094894;28;20016;-67
2022/01/26 00:21:46;;;;;;;90.13;28.90;;;1.50;99.90;;;;;;5076230;28;20016;-67
2022/01/26 00:29:25;;;;;;;90.45;27.95;;;1.50;99.90;;;;;;5093876;28;20392;-68
2022/01/26 00:40:25;;;;;;;102.28;26.42;;;1.50;99.90;;;;;;5094456;28;20488;-68
2022/01/26 00:42:54;;;;;;;96.38;28.48;;;1.40;99.90;;;;;;5093826;28;20023;-67
2022/01/26 00:45:24;;;;;;;100.65;27.15;;;1.40;99.90;;;;;;5075394;28;20036;-68
2022/01/26 00:47:50;;;;;;;90.75;26.35;;;1.30;99.90;;;;;;5093904;28;20055;-68
2022/01/26 00:50:16;;;;;;;102.68;28.30;;;1.40;99.90;;;;;;5075495;28;20476;-69
2022/01/26 00:52:45;;;;;;;94.80;29.02;;;1.30;99.90;;;;;;5093799;28;20028;-69
2022/01/26 00:55:15;;;;;;;99.10;29.20;;;1.30;99.90;;;;;;5075329;28;20020;-68
2022/01/26 00:57:41;;;;;;;91.90;28.02;;;1.40;99.90;;;;;;5075402;28;20020;-68
2022/01/26 01:00:11;;;;;;;89.90;26.38;;;1.40;99.90;;;;;;5093716;28;20053;-68
2022/01/26 01:02:36;;;;;;;94.57;26.23;;;1.50;99.90;;;;;;5093624;28;20476;-67
2022/01/26 01:05:11;;;;;;;89.43;27.77;;;1.50;99.90;;;;;;5093356;28;20035;-68
2022/01/26 01:07:39;;;;;;;78.05;25.33;;;1.50;99.90;;;;;;5093617;28;20039;-68
2022/01/26 01:10:05;;;;;;;87.30;25.63;;;1.30;99.90;;;;;;5075622;28;20078;-69
2022/01/26 01:12:36;;;;;;;92.40;27.30;;;1.30;99.90;;;;;;5075447;28;20404;-69
2022/01/26 01:15:03;;;;;;;93.95;27.00;;;1.20;99.90;;;;;;5093606;28;20016;-68
2022/01/26 01:17:36;;;;;;;88.57;27.15;;;1.20;99.90;;;;;;5075127;28;20020;-68
2022/01/26 01:23:16;;;;;;;92.82;26.75;;;1.40;99.90;;;;;;5093865;28;20028;-68
2022/01/26 01:26:06;;;;;;;86.15;25.33;;;1.30;99.90;;;;;;5093336;28;20020;-68
2022/01/26 01:31:15;;;;;;;98.22;29.90;;;1.30;99.90;;;;;;5094395;28;20142;-69
2022/01/26 01:33:45;;;;;;;95.18;28.25;;;1.30;99.90;;;;;;5093601;28;20024;-68
2022/01/26 01:36:12;;;;;;;96.88;28.45;;;1.30;99.90;;;;;;5075455;28;20153;-69
2022/01/26 01:38:43;;;;;;;85.45;26.15;;;1.20;99.90;;;;;;5093194;28;20357;-68
2022/01/26 01:41:08;;;;;;;91.85;28.42;;;1.20;99.90;;;;;;5079549;28;20028;-69
2022/01/26 01:43:35;;;;;;;101.33;29.37;;;1.20;99.90;;;;;;5080567;28;20385;-69
2022/01/26 01:46:01;;;;;;;82.00;24.02;;;1.20;99.90;;;;;;5097966;28;20274;-68
2022/01/26 01:48:30;;;;;;;;;;;1.20;99.90;;;;;;5098855;28;20040;-68
2022/01/26 01:50:58;;;;;;;84.45;24.75;;;1.20;99.90;;;;;;5098313;28;19908;-68
2022/01/26 01:53:34;;;;;;;85.50;25.48;;;1.20;99.90;;;;;;5099252;28;20016;-68
2022/01/26 01:56:00;;;;;;;83.80;24.17;;;1.20;99.90;;;;;;5098717;28;20198;-68
2022/01/26 01:58:26;;;;;;;;;;;1.20;99.90;;;;;;5099010;28;20383;-68
2022/01/26 02:00:52;;;;;;;90.80;25.63;;;1.10;99.90;;;;;;5098490;28;20007;-68
2022/01/26 02:03:17;;;;;;;89.73;24.97;;;1.00;99.90;;;;;;5080135;28;20050;-68
2022/01/26 02:05:43;;;;;;;92.10;26.40;;;1.00;99.90;;;;;;5099676;28;20423;-67
2022/01/26 02:08:09;;;;;;;86.37;25.93;;;1.20;99.90;;;;;;5082234;28;20073;-69
2022/01/26 02:10:35;;;;;;;91.07;27.03;;;1.20;99.90;;;;;;5099482;28;20082;-68
2022/01/26 02:13:05;;;;;;;101.60;29.77;;;1.10;99.90;;;;;;5098582;28;20396;-68
2022/01/26 02:21:10;;;;;;;85.22;25.92;;;1.00;99.90;;;;;;5096412;28;20043;-68
2022/01/26 02:56:12;;;;;;;77.28;25.27;;;0.80;99.90;;;;;;5095947;28;20024;-67
2022/01/26 03:06:45;;;;;;;80.93;24.05;;;0.80;99.90;;;;;;5095660;28;20016;-68
2022/01/26 03:09:14;;;;;;;77.15;24.70;;;0.80;99.90;;;;;;5095700;28;20024;-67
2022/01/26 03:11:43;;;;;;;89.65;24.58;;;0.80;99.90;;;;;;5095445;28;20082;-68
2022/01/26 03:14:27;;;;;;;86.07;25.42;;;0.80;99.90;;;;;;5095349;28;20101;-68
2022/01/26 03:17:02;;;;;;;88.97;27.42;;;0.70;99.90;;;;;;5095387;28;20501;-67
2022/01/26 03:19:37;;;;;;;79.68;24.35;;;0.80;99.90;;;;;;5077097;28;20031;-69
2022/01/26 03:30:03;;;;;;;71.82;22.13;;;0.90;99.90;;;;;;5095212;28;20111;-67
2022/01/26 03:32:51;;;;;;;66.35;21.27;;;0.90;99.90;;;;;;5076868;28;20055;-67
2022/01/26 03:35:17;;;;;;;66.72;21.50;;;0.90;99.90;;;;;;5094750;28;20142;-68
2022/01/26 03:37:53;;;;;;;53.72;18.67;;;0.90;99.90;;;;;;5076665;28;20024;-68
2022/01/26 03:40:28;;;;;;;62.85;21.42;;;0.90;99.90;;;;;;5076800;28;20068;-68
2022/01/26 03:42:53;;;;;;;57.10;20.05;;;0.90;99.90;;;;;;5076802;28;20081;-69
2022/01/26 03:45:19;;;;;;;71.90;25.77;;;0.90;99.90;;;;;;5095707;28;20032;-68
2022/01/26 03:47:44;;;;;;;73.00;23.20;;;0.90;99.90;;;;;;5095518;28;20032;-68
2022/01/26 03:50:10;;;;;;;63.43;21.33;;;1.00;99.90;;;;;;5077095;28;20279;-68
2022/01/26 03:52:36;;;;;;;64.53;20.43;;;0.90;99.90;;;;;;5095200;28;20027;-68
2022/01/26 03:55:03;;;;;;;71.97;22.93;;;1.00;99.90;;;;;;5095153;28;20258;-69
2022/01/26 03:57:29;;;;;;;70.82;20.45;;;1.00;99.90;;;;;;5077034;28;20036;-69
2022/01/26 03:59:54;;;;;;;65.83;19.60;;;0.90;99.90;;;;;;5095509;28;20129;-68
2022/01/26 04:02:20;;;;;;;73.53;22.03;;;0.90;99.90;;;;;;5094631;28;20024;-68
2022/01/26 04:04:51;;;;;;;68.63;22.37;;;0.90;99.90;;;;;;5076726;28;20028;-68
2022/01/26 04:07:17;;;;;;;60.88;18.98;;;0.80;99.90;;;;;;5076893;28;20448;-68
2022/01/26 04:09:42;;;;;;;64.40;21.77;;;0.90;99.90;;;;;;5076610;28;20055;-68
2022/01/26 04:12:09;;;;;;;63.90;20.93;;;0.90;99.90;;;;;;5077337;28;20054;-67
2022/01/26 04:14:35;;;;;;;61.20;19.85;;;1.10;99.90;;;;;;5094725;28;20036;-67
2022/01/26 04:17:01;;;;;;;63.97;20.85;;;1.00;99.90;;;;;;5094882;28;20032;-67
2022/01/26 04:19:29;;;;;;;59.73;20.20;;;0.90;99.90;;;;;;5076961;28;20161;-67
2022/01/26 04:27:12;;;;;;;61.63;20.17;;;0.80;99.90;;;;;;5094483;28;20380;-67
2022/01/26 04:29:38;;;;;;;69.68;20.70;;;0.80;99.90;;;;;;5094820;28;20027;-67
2022/01/26 04:32:05;;;;;;;63.17;21.50;;;0.80;99.90;;;;;;5094369;28;20024;-67
2022/01/26 04:34:33;;;;;;;55.75;18.75;;;0.80;99.90;;;;;;5093945;28;20013;-67
2022/01/26 04:37:45;;;;;;;66.70;20.05;;;0.80;99.90;;;;;;5076022;28;20024;-67
2022/01/26 04:40:02;;;;;;;61.30;20.65;;;0.80;99.90;;;;;;5090904;28;20062;-67
2022/01/26 04:42:50;;;;;;;61.80;21.00;;;0.80;99.90;;;;;;5094093;28;20105;-67
2022/01/26 04:45:15;;;;;;;62.97;19.90;;;0.70;99.90;;;;;;5093998;28;20130;-67
2022/01/26 04:47:41;;;;;;;56.50;18.20;;;0.70;99.90;;;;;;5094104;28;20031;-66
2022/01/26 04:50:10;;;;;;;63.33;19.77;;;0.70;99.90;;;;;;5093855;28;20051;-66
2022/01/26 04:52:36;;;;;;;60.80;19.10;;;0.70;99.90;;;;;;5093828;28;20020;-66
2022/01/26 04:55:02;;;;;;;64.95;20.63;;;0.70;99.90;;;;;;5075946;28;20027;-67
2022/01/26 04:57:27;;;;;;;61.50;20.00;;;0.70;99.90;;;;;;5094869;28;20507;-67
2022/01/26 04:59:53;;;;;;;68.63;19.43;;;0.70;99.90;;;;;;5095183;28;20376;-67
2022/01/26 05:02:18;;;;;;;56.60;19.07;;;0.80;99.90;;;;;;5076507;28;20024;-67
2022/01/26 05:04:44;;;;;;;57.40;18.50;;;0.80;99.90;;;;;;5093906;28;20027;-67
2022/01/26 05:07:09;;;;;;;54.20;17.40;;;0.80;99.90;;;;;;5093632;28;20499;-67
2022/01/26 05:09:36;;;;;;;61.60;19.77;;;0.80;99.90;;;;;;5093663;28;20084;-68
2022/01/26 05:12:02;;;;;;;60.90;18.67;;;0.80;99.90;;;;;;5093476;28;20103;-67
2022/01/26 05:14:28;;;;;;;65.25;20.45;;;0.80;99.90;;;;;;5074420;28;20036;-67
2022/01/26 05:16:55;;;;;;;60.35;19.35;;;0.70;99.90;;;;;;5093768;28;20171;-66
2022/01/26 05:19:20;;;;;;;58.08;19.85;;;0.70;99.90;;;;;;5075682;28;20028;-69
2022/01/26 05:21:46;;;;;;;53.90;18.40;;;0.70;99.90;;;;;;5075436;28;20039;-69
2022/01/26 05:24:12;;;;;;;55.97;18.25;;;0.70;99.90;;;;;;5093192;28;20078;-67
2022/01/26 05:26:39;;;;;;;54.90;19.00;;;0.70;99.90;;;;;;5093585;28;20111;-70
2022/01/26 05:29:05;;;;;;;62.28;19.60;;;0.70;99.90;;;;;;5074912;28;20074;-66
2022/01/26 05:31:30;;;;;;;62.30;21.85;;;0.80;99.90;;;;;;5075700;28;20484;-66
2022/01/26 05:33:56;;;;;;;60.27;20.30;;;0.80;99.90;;;;;;5093414;28;20024;-67
2022/01/26 05:36:22;;;;;;;64.70;21.73;;;0.80;99.90;;;;;;5093821;28;20035;-67
2022/01/26 05:38:48;;;;;;;71.03;20.73;;;0.80;99.90;;;;;;5093429;28;20021;-67
2022/01/26 05:41:14;;;;;;;69.00;21.30;;;0.80;99.90;;;;;;5078256;28;20028;-70
2022/01/26 05:43:40;;;;;;;64.43;20.23;;;0.80;99.90;;;;;;5094798;28;20024;-72
2022/01/26 05:46:30;;;;;;;70.00;20.38;;;0.70;99.90;;;;;;5075103;28;20123;-67
2022/01/26 05:48:56;;;;;;;71.10;22.08;;;0.70;99.90;;;;;;5092772;28;20107;-67
2022/01/26 05:51:22;;;;;;;86.82;23.00;;;0.70;99.90;;;;;;5092938;28;20047;-66
2022/01/26 05:53:48;;;;;;;70.38;22.55;;;0.80;99.90;;;;;;5092957;28;20026;-66
2022/01/26 05:56:17;;;;;;;73.20;24.20;;;0.70;99.90;;;;;;5092973;28;20016;-66
2022/01/26 05:58:43;;;;;;;81.65;26.17;;;0.70;99.90;;;;;;5093067;28;20023;-66
2022/01/26 06:01:09;;;;;;;77.37;22.63;;;0.80;99.90;;;;;;5093120;28;20103;-67
2022/01/26 06:03:34;;;;;;;68.72;21.85;;;0.80;99.90;;;;;;5092631;28;20028;-67
2022/01/26 06:06:00;;;;;;;86.27;28.30;;;0.90;99.90;;;;;;5093030;28;20600;-70
2022/01/26 06:08:26;;;;;;;74.60;24.20;;;0.80;99.90;;;;;;5092809;28;20031;-68
2022/01/26 06:10:55;;;;;;;74.43;24.60;;;0.80;99.90;;;;;;5092711;28;20039;-70
2022/01/26 06:13:20;;;;;;;74.22;24.27;;;0.80;99.90;;;;;;5074689;28;20036;-67
2022/01/26 06:15:47;;;;;;;76.03;25.33;;;0.80;99.90;;;;;;5092709;28;20020;-66
2022/01/26 06:18:13;;;;;;;78.85;23.38;;;0.90;99.90;;;;;;5092788;28;20388;-66
2022/01/26 06:20:39;;;;;;;69.28;23.48;;;0.80;99.90;;;;;;5092702;28;20027;-72
2022/01/26 06:23:05;;;;;;;72.47;23.17;;;0.90;99.90;;;;;;5092563;28;20035;-72
2022/01/26 06:25:31;;;;;;;76.43;25.63;;;0.80;99.90;;;;;;5075026;28;20097;-69
2022/01/26 06:27:59;;;;;;;72.17;23.77;;;0.80;99.90;;;;;;5096592;28;20484;-67
2022/01/26 06:30:25;;;;;;;65.10;24.17;;;0.80;99.90;;;;;;5096462;28;20738;-67
2022/01/26 06:32:51;;;;;;;73.23;23.90;;;0.80;99.90;;;;;;5096162;28;20028;-67
2022/01/26 06:35:17;;;;;;;67.73;23.03;;;0.80;99.90;;;;;;5096362;28;20258;-66
2022/01/26 06:37:44;;;;;;;72.53;23.60;;;0.90;99.90;;;;;;5096262;28;20046;-63
2022/01/26 06:40:10;;;;;;;73.25;25.40;;;1.30;99.90;;;;;;5096468;28;20534;-63
2022/01/26 06:42:54;;;;;;;70.90;24.75;;;1.30;99.90;;;;;;5096503;28;20077;-67
2022/01/26 06:45:23;;;;;;;72.22;24.88;;;1.20;99.90;;;;;;5096031;28;20527;-67
2022/01/26 06:50:35;;;;;;;69.35;24.08;;;1.20;99.90;;;;;;5096764;28;20435;-68
2022/01/26 06:53:01;;;;;;;77.90;25.83;;;1.10;99.90;;;;;;5096571;28;20024;-67
2022/01/26 06:55:26;;;;;;;72.00;25.13;;;1.00;99.90;;;;;;5096766;28;20016;-66
2022/01/26 06:57:52;;;;;;;74.77;24.73;;;1.10;99.90;;;;;;5096640;28;20017;-67
2022/01/26 07:00:18;;;;;;;74.55;24.73;;;1.10;99.90;;;;;;5096415;28;20024;-67
2022/01/26 07:02:44;;;;;;;71.63;23.83;;;1.00;99.90;;;;;;5077983;28;20385;-68
2022/01/26 07:05:11;;;;;;;73.00;23.10;;;0.90;99.90;;;;;;5096272;28;20073;-71
2022/01/26 07:07:38;;;;;;;74.88;24.65;;;0.90;99.90;;;;;;5077705;28;20030;-67
2022/01/26 07:10:04;;;;;;;;;;;1.00;99.90;;;;;;5096164;28;20020;-67
2022/01/26 07:12:30;;;;;;;87.18;24.17;;;1.00;99.90;;;;;;5096019;28;19912;-67
2022/01/26 07:23:06;;;;;;;56.88;20.17;;;0.90;99.90;;;;;;5095874;28;20028;-67
2022/01/26 07:25:32;;;;;;;54.17;19.70;;;0.90;99.90;;;;;;5095711;28;20047;-67
2022/01/26 07:27:59;;;;;;;53.42;19.67;;;0.90;99.90;;;;;;5095434;28;20476;-67
2022/01/26 07:30:25;;;;;;;49.28;18.88;;;0.80;99.90;;;;;;5077280;28;20036;-67
2022/01/26 07:32:50;;;;;;;51.90;18.98;;;0.80;99.90;;;;;;5095515;28;20472;-67
2022/01/26 07:35:16;;;;;;;47.93;17.87;;;0.80;99.90;;;;;;5095298;28;20062;-66
2022/01/26 07:37:44;;;;;;;53.87;19.20;;;0.90;99.90;;;;;;5094309;28;20024;-66
2022/01/26 07:40:10;;;;;;;54.25;20.50;;;0.80;99.90;;;;;;5094772;28;20695;-67
2022/01/26 07:42:37;;;;;;;;;;;0.80;99.90;;;;;;5095596;28;20047;-66
2022/01/26 07:45:05;;;;;;;51.47;18.30;;;0.80;99.90;;;;;;5095657;28;19904;-66
2022/01/26 07:47:31;;;;;;;52.70;17.67;;;0.80;99.90;;;;;;5095194;28;20476;-66
2022/01/26 07:50:04;;;;;;;51.42;18.92;;;0.80;99.90;;;;;;5095414;28;20060;-66
2022/01/26 07:52:35;;;;;;;53.53;18.35;;;0.70;99.90;;;;;;5094959;28;20013;-66
2022/01/26 07:55:00;;;;;;;58.28;21.80;;;0.90;99.90;;;;;;5095173;28;20036;-66
2022/01/26 07:57:26;;;;;;;52.17;18.97;;;0.90;99.90;;;;;;5095027;28;20023;-66
2022/01/26 07:59:55;;;;;;;51.43;19.63;;;0.90;99.90;;;;;;5095045;28;20600;-66
2022/01/26 08:02:21;;;;;;;58.35;21.02;;;0.70;99.90;;;;;;5094680;28;20272;-66
2022/01/26 08:04:47;;;;;;;61.65;20.45;;;0.80;99.90;;;;;;5094838;28;20480;-66
2022/01/26 08:07:13;;;;;;;51.97;19.17;;;0.70;99.90;;;;;;5076158;28;20032;-67
2022/01/26 08:09:44;;;;;;;54.45;20.23;;;0.60;99.90;;;;;;5094341;28;20024;-66
2022/01/26 08:12:16;;;;;;;52.40;19.30;;;0.80;99.90;;;;;;5094491;28;20109;-67
2022/01/26 08:14:43;;;;;;;44.75;18.05;;;0.70;99.90;;;;;;5075890;28;20035;-66
2022/01/26 08:17:10;;;;;;;50.97;20.02;;;0.70;99.90;;;;;;5094336;28;20112;-66
2022/01/26 08:19:37;;;;;;;51.75;18.67;;;0.70;99.90;;;;;;5094343;28;20020;-66
2022/01/26 08:22:03;;;;;;;;;;;0.70;99.90;;;;;;5076327;28;20094;-66
2022/01/26 08:24:29;;;;;;;42.50;17.08;;;0.80;99.90;;;;;;5094005;28;19951;-66
2022/01/26 08:26:58;;;;;;;46.17;18.52;;;0.80;99.90;;;;;;5093928;28;20115;-66
2022/01/26 08:29:29;;;;;;;43.78;18.17;;;0.80;99.90;;;;;;5075369;28;20051;-66
2022/01/26 08:31:55;;;;;;;41.38;16.55;;;0.80;99.90;;;;;;5093621;28;20107;-66
2022/01/26 08:34:21;;;;;;;45.60;17.90;;;0.80;99.90;;;;;;5093881;28;20507;-66
2022/01/26 08:36:48;;;;;;;46.58;19.02;;;0.70;99.90;;;;;;5097204;28;20027;-66
2022/01/26 08:39:14;;;;;;;46.58;17.85;;;0.70;99.90;;;;;;5079548;28;20024;-66
2022/01/26 08:41:40;;;;;;;46.97;17.50;;;0.60;99.90;;;;;;5094359;28;20030;-66
2022/01/26 08:44:06;;;;;;;46.97;17.27;;;0.60;99.90;;;;;;5075489;28;20110;-66
2022/01/26 08:46:31;;;;;;;45.17;17.70;;;0.70;99.90;;;;;;5093810;28;20012;-66
2022/01/26 08:48:57;;;;;;;44.20;18.50;;;0.60;99.90;;;;;;5075380;28;20058;-66
2022/01/26 08:51:23;;;;;;;43.57;16.90;;;0.60;99.90;;;;;;5093431;28;20031;-67
2022/01/26 08:53:49;;;;;;;42.75;17.63;;;0.60;99.90;;;;;;5075392;28;20048;-67
2022/01/26 08:56:16;;;;;;;39.20;17.13;;;0.60;99.90;;;;;;5093292;28;20075;-67
2022/01/26 08:58:42;;;;;;;43.53;17.13;;;0.60;99.90;;;;;;5093832;28;20061;-66
2022/01/26 09:01:08;;;;;;;39.55;16.58;;;0.70;99.90;;;;;;5093603;28;20065;-66
2022/01/26 09:03:39;;;;;;;44.53;18.07;;;0.70;99.90;;;;;;5093799;28;20032;-66
2022/01/26 09:06:05;;;;;;;41.00;17.15;;;0.70;99.90;;;;;;5093752;28;20455;-67
2022/01/26 09:08:31;;;;;;;40.80;17.60;;;0.70;99.90;;;;;;5075245;28;20024;-67
2022/01/26 09:11:00;;;;;;;39.80;17.17;;;0.80;99.90;;;;;;5093557;28;20496;-67
2022/01/26 09:13:29;;;;;;;44.25;18.45;;;0.70;99.90;;;;;;5093061;28;20503;-67
2022/01/26 09:15:55;;;;;;;37.90;17.13;;;0.80;99.90;;;;;;5093170;28;20480;-66
2022/01/26 09:18:31;;;;;;;36.53;17.77;;;0.90;99.90;;;;;;5092930;28;20016;-67
2022/01/26 09:20:56;;;;;;;37.78;16.65;;;0.90;99.90;;;;;;5093415;28;20057;-66
2022/01/26 09:23:22;;;;;;;38.63;16.03;;;0.90;99.90;;;;;;5092668;28;20406;-67
2022/01/26 09:25:48;;;;;;;37.20;17.63;;;1.00;99.90;;;;;;5074483;28;20030;-67
2022/01/26 09:28:13;;;;;;;42.33;17.37;;;1.10;99.90;;;;;;5093193;28;20028;-67
2022/01/26 09:30:39;;;;;;;40.47;17.07;;;1.10;99.90;;;;;;5092847;28;20484;-66
2022/01/26 09:33:04;;;;;;;38.23;16.40;;;1.10;99.90;;;;;;5092788;28;20020;-66
2022/01/26 09:35:30;;;;;;;34.90;15.53;;;1.10;99.90;;;;;;5093145;28;20020;-67
2022/01/26 09:37:56;;;;;;;34.53;16.30;;;1.10;99.90;;;;;;5092812;28;20449;-66
2022/01/26 09:40:22;;;;;;;35.50;15.10;;;1.10;99.90;;;;;;5092976;28;20058;-66
2022/01/26 09:42:49;;;;;;;33.67;14.65;;;1.20;99.90;;;;;;5092945;28;20024;-66
2022/01/26 09:45:15;;;;;;;36.00;15.43;;;1.30;99.90;;;;;;5092878;28;20430;-66
2022/01/26 09:47:43;;;;;;;40.92;17.75;;;1.20;99.90;;;;;;5074789;28;20031;-67
2022/01/26 09:50:09;;;;;;;40.90;17.98;;;1.20;99.90;;;;;;5092792;28;20115;-66
2022/01/26 09:52:45;;;;;;;38.90;16.03;;;1.20;99.90;;;;;;5092692;28;20078;-66
2022/01/26 09:55:11;;;;;;;39.53;16.38;;;1.20;99.90;;;;;;5093546;28;20020;-67
2022/01/26 09:57:38;;;;;;;44.63;17.15;;;1.20;99.90;;;;;;5093057;28;20468;-67
2022/01/26 10:00:06;;;;;;;43.97;15.75;;;1.10;99.90;;;;;;5092772;28;20028;-67
2022/01/26 10:02:34;;;;;;;36.92;15.05;;;1.00;99.90;;;;;;5078573;28;20054;-67
2022/01/26 10:05:05;;;;;;;43.65;16.17;;;1.10;99.90;;;;;;5080109;28;20032;-67
2022/01/26 10:15:28;;;;;;;45.45;16.58;;;1.30;99.90;;;;;;5096935;28;20008;-68
2022/01/26 10:18:07;;;;;;;42.78;15.98;;;1.30;99.90;;;;;;5097127;28;20101;-68
2022/01/26 10:20:48;;;;;;;41.10;16.25;;;1.30;99.90;;;;;;5096909;28;20599;-67
2022/01/26 10:23:26;;;;;;;38.83;15.52;;;1.30;99.90;;;;;;5096157;28;20058;-67
2022/01/26 10:26:06;;;;;;;38.30;14.93;;;1.30;99.90;;;;;;5096712;28;20462;-67
2022/01/26 10:28:53;;;;;;;40.22;15.48;;;1.20;99.90;;;;;;5078597;28;20089;-67
2022/01/26 10:31:27;;;;;;;34.08;14.30;;;1.20;99.90;;;;;;5095859;28;20035;-67
2022/01/26 10:34:06;;;;;;;40.05;15.18;;;1.10;99.90;;;;;;5077793;28;20046;-67
2022/01/26 10:36:35;;;;;;;33.55;13.98;;;1.10;99.90;;;;;;5096131;28;20020;-67
2022/01/26 10:39:07;;;;;;;33.15;15.13;;;1.10;99.90;;;;;;5096393;28;20027;-68
2022/01/26 10:41:35;;;;;;;30.23;14.20;;;1.10;99.90;;;;;;5096086;28;20107;-67
2022/01/26 10:44:02;;;;;;;31.80;14.55;;;1.10;99.90;;;;;;5077732;28;20024;-68
2022/01/26 10:46:31;;;;;;;28.77;13.68;;;1.10;99.90;;;;;;5095766;28;20016;-68
2022/01/26 10:49:31;;;;;;;28.17;13.63;;;1.10;99.90;;;;;;5096199;28;20020;-67
2022/01/26 10:52:01;;;;;;;27.25;11.50;;;1.10;99.90;;;;;;5096105;28;20550;-67
2022/01/26 10:54:37;;;;;;;29.77;13.77;;;1.10;99.90;;;;;;5078295;28;20471;-67
2022/01/26 10:57:11;;;;;;;26.23;12.52;;;1.20;99.90;;;;;;5095866;28;20024;-68
2022/01/26 10:59:42;;;;;;;26.52;13.07;;;1.20;99.90;;;;;;5096015;28;20463;-67
2022/01/26 11:02:10;;;;;;;26.02;12.20;;;1.20;99.90;;;;;;5096158;28;20027;-67
2022/01/26 11:04:39;;;;;;;25.98;13.07;;;1.20;99.90;;;;;;5095972;28;20024;-67
2022/01/26 11:07:10;;;;;;;26.50;12.52;;;1.20;99.90;;;;;;5095803;28;20032;-68
2022/01/26 11:09:39;;;;;;;27.98;13.82;;;1.20;99.90;;;;;;5095804;28;20107;-66
2022/01/26 11:12:08;;;;;;;23.05;13.20;;;1.20;99.90;;;;;;5094263;28;20069;-66
2022/01/26 11:14:46;;;;;;;25.70;13.50;;;1.20;99.90;;;;;;5095419;28;20028;-67
2022/01/26 11:17:23;;;;;;;26.33;13.43;;;1.30;99.90;;;;;;5096303;28;20065;-68
2022/01/26 11:19:48;;;;;;;24.93;12.83;;;1.30;99.90;;;;;;5095284;28;20424;-68
2022/01/26 11:22:15;;;;;;;24.00;12.33;;;1.30;99.90;;;;;;5095437;28;20073;-67
2022/01/26 11:24:48;;;;;;;28.90;14.60;;;1.30;99.90;;;;;;5095481;28;20046;-66
2022/01/26 11:27:16;;;;;;;30.33;13.60;;;1.30;99.90;;;;;;5096976;28;20425;-68
2022/01/26 11:29:46;;;;;;;26.77;13.70;;;1.30;99.90;;;;;;5078358;28;20039;-68
2022/01/26 11:32:37;;;;;;;26.17;13.00;;;1.30;99.90;;;;;;5095463;28;20066;-68
2022/01/26 11:35:07;;;;;;;27.42;14.13;;;1.30;99.90;;;;;;5077138;28;20024;-67
2022/01/26 11:37:49;;;;;;;29.02;14.38;;;1.30;99.90;;;;;;5095617;28;20047;-67
2022/01/26 11:46:11;;;;;;;26.05;14.15;;;1.50;99.90;;;;;;5032717;28;20068;-67
2022/01/26 11:48:38;;;;;;;33.78;14.98;;;1.50;99.90;;;;;;5073123;28;20032;-67
2022/01/26 11:51:05;;;;;;;32.35;14.32;;;1.50;99.90;;;;;;5094623;28;20090;-67
2022/01/26 11:53:32;;;;;;;24.60;12.15;;;1.50;99.90;;;;;;5094735;28;20020;-68
2022/01/26 11:56:09;;;;;;;31.40;13.90;;;1.50;99.90;;;;;;5094945;28;20016;-68
2022/01/26 11:58:41;;;;;;;30.65;13.35;;;1.50;99.90;;;;;;5095413;28;20024;-68
2022/01/26 12:01:17;;;;;;;31.27;13.27;;;1.50;99.90;;;;;;5094559;28;20095;-67
2022/01/26 12:04:06;;;;;;;29.48;13.90;;;1.50;99.90;;;;;;5094442;28;20043;-67
2022/01/26 12:06:40;;;;;;;30.45;12.98;;;1.50;99.90;;;;;;5095076;28;20020;-68
2022/01/26 12:09:08;;;;;;;32.42;13.73;;;1.60;99.90;;;;;;5094781;28;20471;-68
2022/01/26 12:11:34;;;;;;;30.92;13.05;;;1.50;99.90;;;;;;5094793;28;20430;-68
2022/01/26 12:14:02;;;;;;;31.30;12.60;;;1.50;99.90;;;;;;5077084;28;20361;-68
2022/01/26 12:16:37;;;;;;;33.60;13.20;;;1.50;99.90;;;;;;5095316;28;20062;-68
2022/01/26 12:19:24;;;;;;;32.92;13.07;;;1.60;99.90;;;;;;5076877;28;20046;-68
2022/01/26 12:36:36;;;;;;;23.40;10.05;;;1.70;99.90;;;;;;5094609;28;20024;-67
2022/01/26 12:39:04;;;;;;;26.58;11.15;;;1.70;99.90;;;;;;5094373;28;20016;-67
2022/01/26 12:44:06;;;;;;;30.47;11.87;;;1.60;99.90;;;;;;5093684;28;20020;-67
2022/01/26 12:46:34;;;;;;;27.88;11.88;;;1.60;99.90;;;;;;5094061;28;20016;-67
2022/01/26 12:49:13;;;;;;;24.05;9.90;;;1.70;99.90;;;;;;5093654;28;20078;-67
2022/01/26 12:51:41;;;;;;;33.22;12.50;;;1.70;99.90;;;;;;5093547;28;20111;-68
2022/01/26 12:54:06;;;;;;;25.05;11.27;;;1.60;99.90;;;;;;5093571;28;20032;-68
2022/01/26 12:56:32;;;;;;;29.43;11.83;;;1.60;99.90;;;;;;5093477;28;20020;-68
2022/01/26 12:59:06;;;;;;;25.65;10.48;;;1.60;99.90;;;;;;5093556;28;20085;-68
2022/01/26 13:01:32;;;;;;;28.90;11.00;;;1.60;99.90;;;;;;5093566;28;20450;-68
2022/01/26 13:04:01;;;;;;;26.45;11.55;;;1.60;99.90;;;;;;5093410;28;20031;-68
2022/01/26 13:06:31;;;;;;;26.85;11.27;;;1.60;99.90;;;;;;5093496;28;20028;-67
2022/01/26 13:09:02;;;;;;;24.77;10.60;;;1.60;99.90;;;;;;5093519;28;20024;-67
2022/01/26 13:11:28;;;;;;;23.77;10.48;;;1.60;99.90;;;;;;5093436;28;20036;-67
2022/01/26 13:14:17;;;;;;;26.08;11.80;;;1.60;99.90;;;;;;5075270;28;20055;-68
2022/01/26 13:17:10;;;;;;;31.13;11.85;;;1.60;99.90;;;;;;5093597;28;20024;-68
2022/01/26 13:22:40;;;;;;;29.92;11.10;;;1.70;99.90;;;;;;5093431;28;20024;-68
2022/01/26 13:33:39;;;;;;;27.48;10.98;;;1.60;99.90;;;;;;5093533;28;20111;-67
2022/01/26 13:41:19;;;;;;;27.58;10.30;;;1.60;99.90;;;;;;5093326;28;20386;-67
2022/01/26 13:47:03;;;;;;;20.92;9.15;;;1.70;99.90;;;;;;5093132;28;20035;-68
2022/01/26 13:49:39;;;;;;;24.48;9.80;;;1.60;99.90;;;;;;5093049;28;20096;-68
2022/01/26 14:00:06;;;;;;;21.35;9.50;;;1.60;99.90;;;;;;5093032;28;20034;-68
2022/01/26 14:02:34;;;;;;;21.83;8.77;;;1.60;99.90;;;;;;5092610;28;20028;-67
2022/01/26 14:04:59;;;;;;;23.10;10.60;;;1.60;99.90;;;;;;5093327;28;20516;-68
2022/01/26 14:07:25;;;;;;;22.87;9.13;;;1.60;99.90;;;;;;5093118;28;20131;-68
2022/01/26 14:09:51;;;;;;;20.87;9.63;;;1.70;99.90;;;;;;5092697;28;20024;-67
2022/01/26 14:12:21;;;;;;;23.30;9.13;;;1.70;99.90;;;;;;5074498;28;20043;-68
2022/01/26 14:14:52;;;;;;;23.77;10.93;;;1.70;99.90;;;;;;5092761;28;20465;-68
2022/01/26 14:17:27;;;;;;;19.13;8.93;;;1.80;99.90;;;;;;5093038;28;20016;-68
2022/01/26 14:20:09;;;;;;;23.55;9.70;;;1.80;99.90;;;;;;5074789;28;20024;-68
2022/01/26 14:27:40;;;;;;;23.70;9.73;;;1.70;99.90;;;;;;5099185;28;20389;-68
2022/01/26 14:35:41;;;;;;;21.00;8.98;;;1.70;99.90;;;;;;5092855;28;20028;-69
2022/01/26 14:55:00;;;;;;;22.10;10.32;;;1.60;99.90;;;;;;5096292;28;20472;-68
2022/01/26 15:00:38;;;;;;;21.95;10.35;;;1.60;99.90;;;;;;5096216;28;20404;-67
2022/01/26 15:09:01;;;;;;;22.80;9.68;;;1.60;99.90;;;;;;5096136;28;20032;-68
2022/01/26 15:40:23;;;;;;;22.83;9.50;;;1.50;99.90;;;;;;5095802;28;20089;-67
2022/01/26 16:36:35;;;;;;;27.02;10.65;;;1.50;99.90;;;;;;5094785;28;20107;-67
2022/01/26 18:26:51;;;;;;;19.75;9.05;;;1.20;99.90;;;;;;5096733;28;20161;-65
2022/01/26 18:32:25;;;;;;;28.27;10.98;;;1.30;99.90;;;;;;5096771;28;20078;-65
2022/01/26 18:51:20;;;;;;;24.15;10.02;;;1.20;99.90;;;;;;5096306;28;20031;-65
2022/01/26 18:53:45;;;;;;;25.67;12.13;;;1.20;99.90;;;;;;5095972;28;20021;-65
2022/01/26 18:56:11;;;;;;;27.27;11.80;;;1.10;99.90;;;;;;5096020;28;20031;-66
2022/01/26 18:58:36;;;;;;;22.53;10.63;;;1.10;99.90;;;;;;5096049;28;20080;-66
2022/01/26 19:01:02;;;;;;;20.40;8.83;;;1.00;99.90;;;;;;5096060;28;20032;-66
2022/01/26 19:03:28;;;;;;;23.23;10.40;;;1.00;99.90;;;;;;5095863;28;20444;-65
2022/01/26 19:05:55;;;;;;;21.50;9.70;;;1.10;99.90;;;;;;5096488;28;20039;-65
2022/01/26 19:08:22;;;;;;;20.23;8.98;;;1.00;99.90;;;;;;5097199;28;20472;-65
2022/01/26 19:10:47;;;;;;;21.27;9.52;;;0.90;99.90;;;;;;5096689;28;20393;-66
2022/01/26 19:13:13;;;;;;;23.40;9.93;;;0.90;99.90;;;;;;5097283;28;20040;-65
2022/01/26 19:15:38;;;;;;;22.80;9.77;;;0.80;99.90;;;;;;5096626;28;20027;-66
2022/01/26 19:18:14;;;;;;;25.20;10.37;;;0.80;99.90;;;;;;5098652;28;20476;-66
2022/01/26 19:21:12;;;;;;;24.27;9.45;;;0.80;99.90;;;;;;5097224;28;20020;-66
2022/01/26 19:23:40;;;;;;;21.08;9.38;;;0.80;99.90;;;;;;5096295;28;20121;-65
2022/01/26 19:26:11;;;;;;;22.00;8.80;;;0.80;99.90;;;;;;5097436;28;20032;-65
2022/01/26 19:28:42;;;;;;;20.17;8.77;;;0.80;99.90;;;;;;5078329;28;20024;-65